Airfield :
LOGIN :

Register | Disclaimer

   EN    FR    IT 

 










Legend :    VFR   Marginal VFR   IFR   Intensive IFR   Very Intensive IFR
Visi :
Ceiling :
>= 8 km
>= 3000ft
5 to 8 km
1000 to 3000 ft
1500m to 5 km
500 to 1000 ft
800 to 1500m
200 to 500 ft
< 800m
< 200 ft
Symbols :   Thunderstorms  Fog  Heavy snow  Heavy precipitations  Wind > 20 kt
SIGMETs :     Misc.  Thunderstorms  Icing  Turbulence  Mountain Waves  Volcanic Ashes







- Airport Elevation : 1416 ft
- IATA code : ZRH


LSZH - Zurich

CURRENT METAR :
  • 111950Z VRB02KT 9999 SCT057 M02/M03 Q1023 NOSIG

EXPIRED METARs :
  • 111920Z VRB03KT 9999 FEW058 M00/M02 Q1023 NOSIG
  • 111850Z 26002KT 9999 SCT058 M03/M03 Q1023 NOSIG
  • 111820Z VRB02KT 9999 FEW058 M02/M03 Q1023 NOSIG
  • 111750Z VRB01KT 9999 FEW060 M01/M03 Q1023 NOSIG
  • 111720Z VRB01KT 9999 FEW060 M00/M03 Q1023 NOSIG

TAF TAF LSZH
Valid from the 11 at 18:00 until the 13 at 00:00 UTC


111725Z 1118/1224 VRB03KT 9999 FEW060 TX01/1214Z TNM06/1206Z
BECMG 1119/1122 CAVOK
PROB30 1203/1208 3000 MIFG
BECMG 1211/1214 05008KT 9999 SCT012
PROB40 1211/1224 BKN012
ATIS : +41 43 816 2295 (DEP) +41 43 816 2294 (ARR)
No reported NOTAMs for that airfield.



MET'MAP, your aeronautical weather chart ! - Copyright ORBIFLY December 2007 - Disclaimer

ORBIFLY MET'MAP TEAM :

Programming & Development : Alexandra Zaïnal
Concept & Development : Baudouin d'Aumeries
Co-Development & Prog : Marc-Olivier Méhu
Technical & hardware support : Manuel Goepfert

Contact : metmap@orbifly.com




SOURCES & CREDITS :

   NOAA